Mc Guire Air Force Base
KWRI : now visible

Airfield :











YOU CAN JOIN US ON...

 
LOGIN :

Register | Disclaimer

   EN    FR    IT 

 









Legend :    VFR   Marginal VFR   IFR   Intensive IFR   Very Intensive IFR
Visi :
Ceiling :
>= 8 km
>= 3000ft
5 to 8 km
1000 to 3000 ft
1500m to 5 km
500 to 1000 ft
800 to 1500m
200 to 500 ft
< 800m
< 200 ft
Symbols :   Thunderstorms  Fog  Heavy snow  Heavy precipitations  Wind > 20 kt






- Airport Elevation : 131 ft
- IATA code : WRI


KWRI - Mc Guire Air Force Base

CURRENT METAR :
  • 081201Z 00000KT 6SM BR BKN005 OVC011 21/21 A3015 RMK AO2A SLP209 TSNO $

EXPIRED METARs :
  • 081152Z 00000KT 4SM BR OVC004 21/21 A3015 RMK AO2A TWR VIS 0 SLP209 TSNO $
  • 081115Z 09003KT 3/8SM R06/2200V3500FT -RA FG VV003 20/20 A3015 RMK AO2A TWR VIS 0 SLP209 $
  • 081110Z 10004KT 5/8SM R06/2600VP6000FT -RA BR BKN003 20/20 A3015 RMK AO2A TWR VIS 0 SLP209 $
  • 081048Z 12003KT 10SM FEW005 20/20 A3015 RMK AO2A SLP209 $
  • 081026Z 07003KT 3SM BR CLR 20/20 A3014 RMK AO2A SLP205 $
  • 081021Z 07003KT 2 1/4SM BR CLR 20/19 A3014 RMK AO2A VIS 2V2 1/2 VIS 3/8 RWY36 SLP205 $
  • 081011Z 05003KT 2 1/2SM BR CLR 20/19 A3013 RMK AO2A VIS 2 1/2V4 SLP202 $
  • 080956Z 04003KT 5SM BR CLR 20/19 A3013 RMK AO2A SLP202 T01970194 $
  • 080921Z 01004KT 8SM SCT049 20/20 A3012 RMK AO2A SLP198 $

TAF AMD TAF KWRI
Valid from the 08 at 11:00 until the 09 at 16:00 UTC


081100Z 0811/0916 VRB04KT 4800 BR BKN005 QNH3010INS
BECMG 0812/0814 02005KT 9999 NSW BKN025 QNH3009INS
BECMG 0818/0819 05005KT 9999 SCT030 BKN050 QNH3010INS
BECMG 0904/0905 VRB03KT 9999 SCT015 SCT250 QNH3010INS
BECMG 0913/0914 25006KT 9999 FEW050 QNH3015INS TX28/0820Z TN20/0811Z
KZNY FIR / North America



MET'MAP, your aeronautical weather chart ! - Copyright ORBIFLY December 2007 - Disclaimer

ORBIFLY MET'MAP TEAM :

Programming & Development : Alexandra Zaïnal
Concept & original design : Baudouin d'Aumeries
Assistance for programming : Marc-Olivier Méhu
Technical & hardware support : Manuel Goepfert

Contact : metmap@orbifly.com




SOURCES & CREDITS :

   NOAA       Earth
Advisory